EDJA

Memmingen Allgau Airport

Memmingen, Germany
METAR EDJA 210520Z VRB02KT CAVOK 14/12 Q1021
Observed Flight Rules
Aug-21 @ 05:20 UTC (18 hours ago) Visual Flight Rules
Wind Visibility Clouds
Variable at 2 knots 10,000+ meters
  • Clear skies
Temperatures Readings
Current 14°C / 57°F
Dewpoint 12°C / 54°F
Humidity 88%
Altimeter 30.15" Hg
Pressure 1021 hPa
Elevation 633
METAR EDJA 210520Z VRB02KT CAVOK 14/12 Q1021
Observed Flight Rules
Aug-21 @ 05:20 UTC
(18 hours ago)
VFR
Wind Visibility
Variable at 2 knots 10,000+ meters
Clouds
  • Clear skies
Temperature Dewpoint
14°C / 57°F 12°C / 54°F
Humidity Altimeter Pressure
88% 30.15" Hg 1021 hPa